Time;durP1;ratioP1;P1;durP2;ratioP2;P2;SDS_P1;SDS_P2;PMS_P1;PMS_P2;Temp;Humidity;BMP_temperature;BMP_pressure;BME280_temperature;BME280_humidity;BME280_pressure;Samples;Min_cycle;Max_cycle;Signal;HPM_P1;HPM_P2
2021/08/04 00:00:51;;;;;;;3.63;2.27;;;16.90;93.30;;;;;;5113194;28;20438;-70
2021/08/04 00:03:19;;;;;;;3.77;2.83;;;16.90;93.00;;;;;;5112811;28;20522;-67
2021/08/04 00:05:47;;;;;;;3.90;2.50;;;16.80;92.90;;;;;;5113103;28;20461;-68
2021/08/04 00:08:14;;;;;;;4.70;2.63;;;16.80;93.10;;;;;;5112573;28;20444;-67
2021/08/04 00:10:41;;;;;;;4.03;2.70;;;16.80;92.70;;;;;;5113095;28;20932;-67
2021/08/04 00:13:08;;;;;;;3.57;2.13;;;16.80;92.60;;;;;;5112506;28;20481;-68
2021/08/04 00:15:35;;;;;;;3.70;2.10;;;16.80;92.70;;;;;;5116279;28;20528;-67
2021/08/04 00:18:02;;;;;;;3.53;2.03;;;16.80;92.60;;;;;;5116838;28;20481;-68
2021/08/04 00:20:31;;;;;;;3.67;2.63;;;16.70;91.90;;;;;;5096824;28;20434;-67
2021/08/04 00:22:58;;;;;;;3.10;2.10;;;16.70;92.10;;;;;;5096801;28;20435;-67
2021/08/04 00:25:25;;;;;;;3.70;2.27;;;16.70;92.40;;;;;;5116053;28;20438;-67
2021/08/04 00:27:52;;;;;;;3.30;1.70;;;16.60;92.50;;;;;;5117134;28;20430;-67
2021/08/04 00:30:19;;;;;;;5.83;2.30;;;16.60;92.50;;;;;;5116488;28;20462;-67
2021/08/04 00:32:46;;;;;;;3.83;2.33;;;16.60;92.60;;;;;;5116821;28;20494;-68
2021/08/04 00:35:13;;;;;;;3.87;2.77;;;16.60;92.50;;;;;;5116720;28;20442;-68
2021/08/04 00:37:42;;;;;;;3.87;2.20;;;16.50;92.50;;;;;;5116603;28;20486;-68
2021/08/04 00:40:10;;;;;;;2.87;1.80;;;16.50;92.60;;;;;;5116408;28;20483;-67
2021/08/04 00:42:37;;;;;;;4.03;1.93;;;16.50;92.80;;;;;;5116706;28;20442;-67
2021/08/04 00:45:07;;;;;;;3.70;2.27;;;16.50;93.10;;;;;;5116311;28;20438;-67
2021/08/04 00:47:35;;;;;;;3.23;2.30;;;16.50;92.60;;;;;;5116519;28;20836;-67
2021/08/04 00:50:02;;;;;;;5.07;2.70;;;16.50;92.60;;;;;;5114331;28;20836;-67
2021/08/04 00:52:29;;;;;;;3.83;2.73;;;16.40;93.10;;;;;;5116099;28;20430;-67
2021/08/04 00:54:58;;;;;;;3.77;2.17;;;16.40;93.30;;;;;;5116688;28;20437;-67
2021/08/04 00:57:25;;;;;;;3.40;1.87;;;16.40;93.50;;;;;;5116012;28;20461;-68
2021/08/04 00:59:52;;;;;;;3.40;2.13;;;16.40;93.50;;;;;;5116422;28;20517;-67
2021/08/04 01:02:23;;;;;;;6.80;2.40;;;16.30;93.20;;;;;;5116463;28;20464;-67
2021/08/04 01:04:55;;;;;;;3.80;2.37;;;16.30;93.60;;;;;;5116343;28;20483;-67
2021/08/04 01:07:27;;;;;;;5.53;2.20;;;16.30;93.90;;;;;;5116174;28;20438;-67
2021/08/04 01:09:59;;;;;;;3.40;2.20;;;16.30;94.00;;;;;;5116377;28;20438;-67
2021/08/04 01:12:35;;;;;;;3.80;2.07;;;16.20;94.10;;;;;;5115564;28;20499;-67
2021/08/04 01:15:06;;;;;;;3.43;2.13;;;16.20;94.30;;;;;;5116371;28;20433;-67
2021/08/04 01:17:35;;;;;;;3.90;2.40;;;16.20;94.30;;;;;;5115702;28;20438;-67
2021/08/04 01:20:11;;;;;;;8.40;2.10;;;16.20;94.20;;;;;;5116231;28;20478;-67
2021/08/04 01:22:52;;;;;;;4.00;2.50;;;16.20;94.10;;;;;;5116179;28;20859;-69
2021/08/04 01:25:22;;;;;;;3.67;2.27;;;16.10;94.20;;;;;;5116023;28;20860;-67
2021/08/04 01:28:12;;;;;;;3.67;2.20;;;16.10;94.50;;;;;;5115536;28;20914;-67
2021/08/04 01:30:41;;;;;;;3.37;2.40;;;16.10;94.50;;;;;;5115218;28;20894;-67
2021/08/04 01:33:08;;;;;;;4.20;2.60;;;16.10;94.60;;;;;;5115456;28;20466;-67
2021/08/04 01:35:37;;;;;;;3.47;2.03;;;16.10;94.20;;;;;;5115277;28;20446;-67
2021/08/04 01:38:04;;;;;;;3.70;2.47;;;16.00;94.50;;;;;;5115752;28;20513;-67
2021/08/04 01:40:32;;;;;;;3.40;2.30;;;16.00;95.00;;;;;;5115263;28;20441;-67
2021/08/04 01:43:02;;;;;;;3.50;2.73;;;16.00;95.30;;;;;;5115183;28;20434;-67
2021/08/04 01:45:30;;;;;;;2.73;1.90;;;16.00;95.50;;;;;;5115584;28;20434;-67
2021/08/04 01:47:59;;;;;;;4.20;2.27;;;16.00;95.60;;;;;;5115041;28;20434;-67
2021/08/04 01:50:26;;;;;;;2.80;1.83;;;16.00;95.50;;;;;;5115549;28;20838;-67
2021/08/04 01:52:54;;;;;;;6.63;2.40;;;16.00;95.50;;;;;;5114866;28;20802;-67
2021/08/04 01:55:21;;;;;;;3.93;1.63;;;16.00;95.40;;;;;;5115347;28;20516;-67
2021/08/04 01:57:48;;;;;;;3.73;2.33;;;16.00;95.30;;;;;;5114836;28;20462;-67
2021/08/04 02:00:17;;;;;;;3.40;2.07;;;16.10;95.40;;;;;;5115267;28;20509;-67
2021/08/04 02:02:44;;;;;;;2.67;1.80;;;16.00;94.70;;;;;;5114859;28;20801;-67
2021/08/04 02:05:12;;;;;;;3.37;2.10;;;16.00;94.90;;;;;;5115388;28;20520;-67
2021/08/04 02:07:48;;;;;;;2.80;2.13;;;16.00;94.80;;;;;;5114606;28;20470;-68
2021/08/04 02:10:21;;;;;;;3.57;2.00;;;16.00;94.80;;;;;;5114606;28;20426;-67
2021/08/04 02:12:56;;;;;;;4.10;2.60;;;16.00;94.80;;;;;;5115236;28;20438;-67
2021/08/04 02:15:27;;;;;;;3.53;2.50;;;16.00;94.70;;;;;;5114576;28;20487;-67
2021/08/04 02:18:02;;;;;;;2.90;1.93;;;16.00;94.60;;;;;;5114941;28;20922;-67
2021/08/04 02:20:35;;;;;;;2.60;1.83;;;16.00;94.90;;;;;;5112703;28;20912;-67
2021/08/04 02:23:05;;;;;;;3.33;2.67;;;16.00;95.20;;;;;;5114925;28;20437;-67
2021/08/04 02:25:38;;;;;;;2.80;2.30;;;16.00;95.30;;;;;;5114444;28;20462;-67
2021/08/04 02:28:08;;;;;;;2.70;2.10;;;16.00;95.30;;;;;;5114913;28;20513;-67
2021/08/04 02:30:37;;;;;;;3.70;2.17;;;16.00;95.50;;;;;;5114576;28;20433;-67
2021/08/04 02:33:05;;;;;;;3.40;2.37;;;16.00;95.70;;;;;;5114756;28;21045;-67
2021/08/04 02:35:32;;;;;;;4.90;2.60;;;16.00;95.80;;;;;;5114485;28;20533;-67
2021/08/04 02:37:59;;;;;;;4.30;2.40;;;16.00;95.60;;;;;;5113957;28;20482;-67
2021/08/04 02:40:26;;;;;;;3.40;1.80;;;15.90;95.60;;;;;;5114003;28;20898;-67
2021/08/04 02:42:56;;;;;;;4.20;2.30;;;15.90;95.40;;;;;;5114496;28;20936;-67
2021/08/04 02:45:23;;;;;;;6.13;2.77;;;15.90;95.60;;;;;;5113991;28;20504;-67
2021/08/04 02:47:52;;;;;;;5.63;2.00;;;15.90;95.70;;;;;;5114305;28;20438;-68
2021/08/04 02:50:20;;;;;;;3.10;2.00;;;15.90;95.80;;;;;;5113919;28;20856;-67
2021/08/04 02:52:48;;;;;;;5.20;2.53;;;15.80;96.00;;;;;;5114226;28;20438;-67
2021/08/04 02:55:17;;;;;;;3.50;2.40;;;15.80;96.10;;;;;;5113891;28;20517;-67
2021/08/04 02:57:44;;;;;;;3.37;2.20;;;15.80;96.20;;;;;;5114218;28;20459;-67
2021/08/04 03:00:12;;;;;;;5.87;2.83;;;15.80;96.60;;;;;;5113736;28;20500;-69
2021/08/04 03:02:39;;;;;;;2.73;2.00;;;15.80;96.30;;;;;;5113970;28;20481;-67
2021/08/04 03:05:09;;;;;;;3.07;2.70;;;15.80;96.20;;;;;;5113514;28;20832;-67
2021/08/04 03:07:36;;;;;;;5.53;2.63;;;15.80;96.00;;;;;;5113927;28;20430;-67
2021/08/04 03:10:03;;;;;;;3.97;2.50;;;15.80;96.10;;;;;;5113943;28;20430;-66
2021/08/04 03:12:31;;;;;;;2.70;1.80;;;15.80;95.90;;;;;;5112008;28;20488;-67
2021/08/04 03:14:58;;;;;;;2.53;1.90;;;15.80;96.20;;;;;;5113337;28;20474;-67
2021/08/04 03:17:25;;;;;;;6.57;2.20;;;15.80;96.60;;;;;;5113869;28;20466;-67
2021/08/04 03:19:52;;;;;;;3.70;2.13;;;15.70;96.70;;;;;;5113665;28;20501;-67
2021/08/04 03:22:20;;;;;;;4.10;2.70;;;15.70;96.60;;;;;;5113836;28;20797;-67
2021/08/04 03:24:47;;;;;;;4.80;2.77;;;15.70;96.90;;;;;;5113271;28;20434;-67
2021/08/04 03:27:15;;;;;;;3.00;2.13;;;15.70;96.70;;;;;;5113544;28;20434;-67
2021/08/04 03:29:42;;;;;;;3.43;2.80;;;15.70;96.50;;;;;;5113202;28;20509;-67
2021/08/04 03:32:09;;;;;;;3.07;2.17;;;15.70;96.70;;;;;;5113477;28;20473;-67
2021/08/04 03:34:36;;;;;;;5.53;2.23;;;15.70;97.00;;;;;;5113013;28;20518;-67
2021/08/04 03:37:04;;;;;;;3.53;2.00;;;15.70;97.20;;;;;;5111752;28;20438;-67
2021/08/04 03:39:32;;;;;;;2.73;1.87;;;15.70;97.20;;;;;;5112985;28;20527;-67
2021/08/04 03:41:59;;;;;;;2.93;2.10;;;15.70;97.30;;;;;;5113406;28;20941;-67
2021/08/04 03:44:27;;;;;;;2.53;1.60;;;15.70;97.10;;;;;;5112918;28;20525;-67
2021/08/04 03:46:54;;;;;;;5.40;2.50;;;15.80;97.20;;;;;;5113296;28;20487;-67
2021/08/04 03:49:21;;;;;;;3.90;2.80;;;15.80;97.30;;;;;;5111932;28;20430;-67
2021/08/04 03:51:48;;;;;;;3.97;2.40;;;15.80;96.90;;;;;;5113304;28;20442;-67
2021/08/04 03:54:15;;;;;;;4.57;2.53;;;15.80;97.00;;;;;;5112722;28;20438;-67
2021/08/04 03:56:43;;;;;;;5.07;2.33;;;15.70;97.00;;;;;;5113245;28;20488;-67
2021/08/04 03:59:10;;;;;;;4.87;2.77;;;15.70;97.10;;;;;;5112864;28;20469;-67
2021/08/04 04:01:38;;;;;;;5.53;3.00;;;15.70;97.20;;;;;;5113144;28;20426;-67
2021/08/04 04:04:05;;;;;;;3.20;2.40;;;15.80;97.50;;;;;;5112653;28;20473;-67
2021/08/04 04:06:32;;;;;;;5.00;2.87;;;15.80;97.70;;;;;;5113362;28;20457;-67
2021/08/04 04:08:59;;;;;;;3.40;2.40;;;15.80;97.80;;;;;;5112610;28;20442;-67
2021/08/04 04:11:27;;;;;;;5.03;2.60;;;15.80;97.80;;;;;;5112981;28;20932;-67
2021/08/04 04:13:55;;;;;;;4.40;2.77;;;15.80;97.60;;;;;;5112775;28;20441;-67
2021/08/04 04:16:23;;;;;;;6.27;2.77;;;15.80;97.20;;;;;;5112786;28;20757;-67
2021/08/04 04:18:51;;;;;;;4.63;2.27;;;15.80;97.10;;;;;;5113020;28;20445;-67
2021/08/04 04:21:17;;;;;;;3.43;2.40;;;15.80;97.30;;;;;;5112733;28;20522;-68
2021/08/04 04:23:45;;;;;;;3.20;2.37;;;15.70;97.10;;;;;;5113046;28;21001;-67
2021/08/04 04:26:12;;;;;;;3.23;2.50;;;15.80;97.30;;;;;;5113050;28;20470;-68
2021/08/04 04:28:39;;;;;;;7.47;3.47;;;15.80;97.50;;;;;;5112480;28;20502;-67
2021/08/04 04:31:07;;;;;;;3.10;2.33;;;15.70;97.30;;;;;;5113286;28;20473;-67
2021/08/04 04:33:34;;;;;;;3.40;2.30;;;15.70;97.30;;;;;;5112606;28;20470;-67
2021/08/04 04:36:01;;;;;;;4.03;2.10;;;15.70;97.40;;;;;;5113129;28;20846;-67
2021/08/04 04:38:28;;;;;;;2.70;2.03;;;15.70;97.40;;;;;;5112235;28;20435;-67
2021/08/04 04:40:55;;;;;;;5.03;2.23;;;15.70;97.60;;;;;;5112800;28;20505;-67
2021/08/04 04:43:22;;;;;;;2.80;2.37;;;15.80;97.60;;;;;;5112595;28;20525;-67
2021/08/04 04:45:49;;;;;;;3.20;2.40;;;15.80;97.80;;;;;;5112891;28;20461;-67
2021/08/04 04:48:18;;;;;;;3.40;2.03;;;15.80;97.90;;;;;;5112125;28;20469;-67
2021/08/04 04:50:45;;;;;;;4.57;2.07;;;15.80;97.90;;;;;;5113122;28;20438;-67
2021/08/04 04:53:13;;;;;;;5.83;2.67;;;15.80;97.50;;;;;;5112612;28;20746;-67
2021/08/04 04:55:40;;;;;;;3.53;2.20;;;15.80;97.80;;;;;;5112654;28;20444;-67
2021/08/04 04:58:07;;;;;;;3.70;2.37;;;15.80;97.80;;;;;;5101170;28;20909;-67
2021/08/04 05:00:34;;;;;;;3.63;2.57;;;15.80;97.80;;;;;;5093048;28;20567;-67
2021/08/04 05:03:01;;;;;;;6.77;2.50;;;15.90;98.10;;;;;;5099898;28;20493;-69
2021/08/04 05:05:29;;;;;;;3.20;2.30;;;15.90;98.00;;;;;;5111461;28;20843;-67
2021/08/04 05:07:57;;;;;;;3.40;2.50;;;15.90;98.00;;;;;;5106911;28;20431;-67
2021/08/04 05:10:24;;;;;;;7.30;2.70;;;16.00;98.20;;;;;;5095348;28;20916;-67
2021/08/04 05:12:51;;;;;;;3.80;2.37;;;15.90;98.20;;;;;;5102170;28;20505;-68
2021/08/04 05:15:18;;;;;;;7.70;2.40;;;16.00;98.10;;;;;;5109549;28;20426;-67
2021/08/04 05:17:45;;;;;;;8.10;2.53;;;16.00;97.80;;;;;;5112963;28;20555;-67
2021/08/04 05:20:13;;;;;;;4.17;2.80;;;16.00;97.80;;;;;;5113288;28;20485;-67
2021/08/04 05:22:45;;;;;;;4.43;3.30;;;16.00;98.30;;;;;;5112342;28;20435;-68
2021/08/04 05:25:13;;;;;;;4.17;3.37;;;16.00;98.10;;;;;;5113301;28;20520;-67
2021/08/04 05:27:40;;;;;;;6.93;2.60;;;16.00;98.10;;;;;;5096881;28;20518;-67
2021/08/04 05:30:08;;;;;;;3.43;2.57;;;16.00;98.00;;;;;;5095004;28;20442;-67
2021/08/04 05:32:35;;;;;;;3.53;2.47;;;16.00;97.90;;;;;;5099887;28;20431;-66
2021/08/04 05:35:02;;;;;;;5.80;3.53;;;16.00;98.20;;;;;;5114403;28;20466;-67
2021/08/04 05:37:29;;;;;;;3.80;2.90;;;16.00;98.30;;;;;;5113878;28;20473;-67
2021/08/04 05:39:57;;;;;;;3.37;2.30;;;16.10;98.40;;;;;;5113033;27;20983;-68
2021/08/04 05:42:24;;;;;;;8.00;3.80;;;16.20;98.60;;;;;;5107662;28;20835;-67
2021/08/04 05:44:52;;;;;;;3.50;2.43;;;16.20;98.40;;;;;;5109478;28;20462;-67
2021/08/04 05:47:19;;;;;;;6.10;3.10;;;16.20;98.50;;;;;;5110657;28;21168;-67
2021/08/04 05:49:48;;;;;;;4.20;2.87;;;16.20;98.30;;;;;;5112069;27;20438;-68
2021/08/04 05:52:15;;;;;;;4.80;2.97;;;16.30;98.40;;;;;;5113727;28;20491;-67
2021/08/04 05:54:42;;;;;;;3.30;2.60;;;16.30;98.40;;;;;;5114934;27;20473;-67
2021/08/04 05:57:11;;;;;;;4.73;3.40;;;16.30;98.30;;;;;;5112667;28;20445;-67
2021/08/04 05:59:38;;;;;;;4.47;2.93;;;16.40;98.40;;;;;;5107563;28;20433;-67
2021/08/04 06:02:05;;;;;;;3.80;3.10;;;16.50;98.50;;;;;;5113168;27;20507;-67
2021/08/04 06:04:33;;;;;;;6.80;3.90;;;16.50;98.30;;;;;;5115038;27;20461;-67
2021/08/04 06:07:00;;;;;;;4.60;3.23;;;16.50;98.20;;;;;;5113120;27;20503;-67
2021/08/04 06:09:29;;;;;;;3.57;2.83;;;16.50;98.00;;;;;;5111043;28;20472;-67
2021/08/04 06:11:55;;;;;;;6.30;3.17;;;16.50;97.80;;;;;;5100955;28;20443;-67
2021/08/04 06:14:24;;;;;;;4.00;3.07;;;16.50;97.70;;;;;;5109459;28;20537;-69
2021/08/04 06:16:51;;;;;;;3.77;2.87;;;16.50;97.70;;;;;;5112433;27;20440;-67
2021/08/04 06:19:18;;;;;;;4.43;3.00;;;16.50;97.40;;;;;;5112285;28;20522;-67
2021/08/04 06:21:45;;;;;;;3.30;2.60;;;16.50;97.70;;;;;;5113821;27;20470;-67
2021/08/04 06:24:12;;;;;;;4.30;2.50;;;16.60;97.70;;;;;;5110388;27;20915;-67
2021/08/04 06:26:39;;;;;;;4.30;2.23;;;16.60;97.90;;;;;;5108666;27;20439;-68
2021/08/04 06:29:06;;;;;;;3.77;2.37;;;16.60;97.80;;;;;;5108649;28;20513;-67
2021/08/04 06:31:35;;;;;;;7.17;2.93;;;16.60;97.90;;;;;;5105131;28;20544;-67
2021/08/04 06:34:02;;;;;;;6.20;2.50;;;16.70;97.80;;;;;;5106106;28;20490;-66
2021/08/04 06:36:28;;;;;;;3.60;2.33;;;16.70;98.00;;;;;;5094297;28;20441;-67
2021/08/04 06:38:55;;;;;;;2.50;2.07;;;16.80;97.00;;;;;;5097998;28;20932;-67
2021/08/04 06:41:23;;;;;;;3.07;2.13;;;16.80;97.10;;;;;;5109585;28;20484;-68
2021/08/04 06:43:50;;;;;;;3.50;2.17;;;16.80;97.30;;;;;;5110179;28;20471;-67
2021/08/04 06:46:17;;;;;;;2.67;2.03;;;16.80;97.20;;;;;;5109695;28;20438;-68
2021/08/04 06:48:45;;;;;;;6.17;1.90;;;16.80;97.20;;;;;;5114358;28;20919;-67
2021/08/04 06:51:16;;;;;;;4.30;2.07;;;16.90;97.10;;;;;;5115150;28;20517;-67
2021/08/04 06:53:46;;;;;;;3.63;1.87;;;16.90;96.70;;;;;;5114906;28;20457;-66
2021/08/04 06:56:13;;;;;;;3.30;2.50;;;16.90;96.40;;;;;;5114400;28;20460;-67
2021/08/04 06:58:40;;;;;;;2.80;1.90;;;17.00;96.50;;;;;;5114351;28;20441;-67
2021/08/04 07:01:08;;;;;;;3.47;1.67;;;17.10;96.70;;;;;;5114570;28;20517;-67
2021/08/04 07:03:38;;;;;;;2.83;1.70;;;17.10;96.80;;;;;;5114852;28;20444;-67
2021/08/04 07:06:08;;;;;;;3.80;1.93;;;17.20;96.90;;;;;;5114694;28;21019;-67
2021/08/04 07:08:35;;;;;;;2.97;1.97;;;17.30;97.00;;;;;;5114527;28;20441;-67
2021/08/04 07:11:02;;;;;;;2.17;1.53;;;17.30;96.20;;;;;;5114586;28;20466;-67
2021/08/04 07:13:29;;;;;;;3.23;2.13;;;17.40;96.40;;;;;;5114641;28;20529;-67
2021/08/04 07:15:56;;;;;;;3.37;1.90;;;17.50;96.50;;;;;;5114624;28;20437;-67
2021/08/04 07:18:23;;;;;;;3.60;1.80;;;17.50;96.30;;;;;;5114294;28;20442;-69
2021/08/04 07:20:50;;;;;;;3.00;1.73;;;17.60;96.20;;;;;;5114153;28;20506;-67
2021/08/04 07:23:18;;;;;;;2.90;2.13;;;17.70;96.10;;;;;;5114306;28;20513;-67
2021/08/04 07:25:46;;;;;;;2.30;1.50;;;17.80;95.90;;;;;;5114198;28;20430;-68
2021/08/04 07:28:13;;;;;;;2.80;1.73;;;17.90;96.00;;;;;;5114524;28;20530;-67
2021/08/04 07:30:40;;;;;;;2.63;1.57;;;18.00;94.60;;;;;;5114167;28;20487;-67
2021/08/04 07:33:08;;;;;;;2.43;1.57;;;18.00;95.00;;;;;;5121202;27;20496;-68
2021/08/04 07:35:35;;;;;;;3.60;1.90;;;18.10;95.50;;;;;;5134841;27;20838;-67
2021/08/04 07:38:02;;;;;;;3.83;1.73;;;18.20;95.70;;;;;;5134829;27;20440;-67
2021/08/04 07:40:30;;;;;;;4.20;2.13;;;18.30;94.80;;;;;;5134573;27;20985;-67
2021/08/04 07:42:57;;;;;;;3.40;1.57;;;18.50;94.90;;;;;;5134322;27;20525;-67
2021/08/04 07:45:23;;;;;;;3.10;1.70;;;18.70;95.20;;;;;;5134564;27;20524;-67
2021/08/04 07:47:50;;;;;;;3.60;1.97;;;18.80;94.40;;;;;;5134503;27;20532;-67
2021/08/04 07:50:17;;;;;;;6.47;1.70;;;18.80;93.50;;;;;;5134572;27;20532;-67
2021/08/04 07:52:44;;;;;;;2.60;1.47;;;18.90;93.60;;;;;;5134190;27;20529;-67
2021/08/04 07:55:13;;;;;;;3.53;1.57;;;18.80;92.60;;;;;;5134590;27;20829;-67
2021/08/04 07:57:41;;;;;;;2.53;1.57;;;18.80;92.90;;;;;;5134515;27;20452;-67
2021/08/04 08:00:10;;;;;;;3.03;1.97;;;18.80;93.10;;;;;;5134239;27;20489;-68
2021/08/04 08:02:36;;;;;;;2.60;1.50;;;18.90;93.00;;;;;;5134337;27;20525;-69
2021/08/04 08:05:04;;;;;;;4.03;1.30;;;18.90;92.20;;;;;;5134500;27;20429;-67
2021/08/04 08:07:31;;;;;;;2.67;1.50;;;18.90;92.40;;;;;;5134316;27;20541;-69
2021/08/04 08:09:57;;;;;;;3.03;1.73;;;19.00;92.70;;;;;;5134256;27;20524;-67
2021/08/04 08:12:24;;;;;;;2.70;1.50;;;18.90;92.00;;;;;;5134370;28;20480;-67
2021/08/04 08:14:52;;;;;;;2.60;1.37;;;19.00;92.70;;;;;;5134182;28;20516;-67
2021/08/04 08:17:19;;;;;;;2.27;1.30;;;19.00;92.20;;;;;;5134066;28;20528;-67
2021/08/04 08:19:46;;;;;;;4.00;1.50;;;19.10;91.40;;;;;;5134173;28;20482;-67
2021/08/04 08:22:13;;;;;;;1.93;1.10;;;19.10;91.80;;;;;;5134037;28;20472;-67
2021/08/04 08:24:40;;;;;;;2.20;1.30;;;19.10;91.90;;;;;;5133971;28;20476;-68
2021/08/04 08:27:07;;;;;;;2.17;1.23;;;19.20;92.00;;;;;;5133874;28;20516;-68
2021/08/04 08:29:34;;;;;;;3.30;1.37;;;19.10;92.30;;;;;;5134001;28;20440;-67
2021/08/04 08:32:02;;;;;;;2.03;1.20;;;19.10;92.30;;;;;;5134057;28;20524;-67
2021/08/04 08:34:29;;;;;;;2.03;1.30;;;19.20;92.50;;;;;;5133953;27;20552;-67
2021/08/04 08:36:56;;;;;;;2.73;1.40;;;19.10;92.00;;;;;;5137708;27;20516;-67
2021/08/04 08:39:22;;;;;;;2.10;0.97;;;19.10;92.20;;;;;;5138145;27;20524;-67
2021/08/04 08:41:50;;;;;;;2.03;1.07;;;19.10;91.90;;;;;;5138070;27;20483;-67
2021/08/04 08:44:17;;;;;;;2.10;1.33;;;19.20;91.70;;;;;;5138084;27;20523;-67
2021/08/04 08:46:44;;;;;;;2.67;1.20;;;19.20;91.60;;;;;;5138058;27;20433;-67
2021/08/04 08:49:12;;;;;;;4.50;1.80;;;19.30;92.00;;;;;;5137949;27;20528;-68
2021/08/04 08:51:39;;;;;;;2.13;1.33;;;19.30;92.10;;;;;;5137818;27;21009;-67
2021/08/04 08:54:06;;;;;;;2.40;1.30;;;19.40;90.80;;;;;;5137927;27;20524;-67
2021/08/04 08:56:33;;;;;;;2.50;1.20;;;19.40;91.50;;;;;;5137937;27;20527;-67
2021/08/04 08:59:00;;;;;;;3.60;1.23;;;19.40;91.50;;;;;;5137829;27;20473;-67
2021/08/04 09:01:35;;;;;;;2.20;1.37;;;19.50;91.90;;;;;;5137748;27;20567;-67
2021/08/04 09:04:06;;;;;;;4.90;1.40;;;19.60;91.20;;;;;;5137816;27;20479;-67
2021/08/04 09:06:47;;;;;;;1.90;1.27;;;19.60;90.70;;;;;;5137767;27;20444;-67
2021/08/04 09:09:18;;;;;;;2.70;1.67;;;19.70;90.60;;;;;;5137687;27;20445;-68
2021/08/04 09:11:46;;;;;;;2.23;1.10;;;19.80;90.50;;;;;;5137465;27;20437;-67
2021/08/04 09:14:13;;;;;;;2.43;1.30;;;19.90;91.00;;;;;;5137551;27;20429;-68
2021/08/04 09:16:41;;;;;;;2.27;1.20;;;19.90;89.70;;;;;;5137361;27;20433;-68
2021/08/04 09:19:22;;;;;;;2.43;1.40;;;19.90;89.20;;;;;;5137464;27;20520;-68
2021/08/04 09:22:15;;;;;;;2.30;1.03;;;19.90;89.30;;;;;;5137233;27;20476;-67
2021/08/04 09:25:04;;;;;;;3.00;1.20;;;20.10;88.10;;;;;;5137443;27;20837;-67
2021/08/04 09:27:43;;;;;;;2.47;1.07;;;20.30;88.40;;;;;;5137238;27;20433;-67
2021/08/04 09:30:12;;;;;;;4.43;1.13;;;20.60;88.20;;;;;;5137252;27;20481;-67
2021/08/04 09:32:39;;;;;;;2.20;1.20;;;21.00;86.90;;;;;;5136717;27;20555;-67
2021/08/04 09:35:12;;;;;;;1.80;0.70;;;21.30;86.00;;;;;;5137209;27;20529;-67
2021/08/04 09:37:41;;;;;;;2.20;1.33;;;21.70;84.30;;;;;;5137232;27;20494;-67
2021/08/04 09:40:10;;;;;;;2.30;1.30;;;21.90;81.60;;;;;;5137078;27;20516;-68
2021/08/04 09:42:48;;;;;;;1.90;0.90;;;22.10;78.30;;;;;;5136933;27;20488;-68
2021/08/04 09:45:17;;;;;;;2.50;1.43;;;22.20;76.90;;;;;;5136920;27;20524;-67
2021/08/04 09:48:01;;;;;;;2.07;1.10;;;22.20;76.10;;;;;;5135470;27;20511;-67
2021/08/04 09:50:43;;;;;;;2.00;0.97;;;22.10;75.30;;;;;;5136816;27;20520;-67
2021/08/04 09:53:17;;;;;;;1.83;0.90;;;22.00;77.40;;;;;;5136800;27;20468;-68
2021/08/04 09:56:02;;;;;;;2.13;0.90;;;21.80;74.50;;;;;;5136563;27;20476;-68
2021/08/04 09:58:29;;;;;;;2.00;1.10;;;21.70;73.70;;;;;;5136641;27;20437;-67
2021/08/04 10:00:56;;;;;;;2.17;0.83;;;21.60;76.40;;;;;;5136428;27;20958;-67
2021/08/04 10:03:23;;;;;;;2.23;0.80;;;21.50;76.10;;;;;;5124219;27;20537;-67
2021/08/04 10:05:50;;;;;;;2.10;1.00;;;21.30;75.90;;;;;;5115233;28;20473;-68
2021/08/04 10:08:18;;;;;;;2.57;1.20;;;21.30;77.10;;;;;;5115481;28;20515;-69
2021/08/04 10:10:49;;;;;;;2.20;1.13;;;21.30;76.70;;;;;;5115805;28;20529;-67
2021/08/04 10:13:18;;;;;;;1.80;1.00;;;21.20;74.80;;;;;;5113095;28;20438;-68
2021/08/04 10:15:47;;;;;;;2.20;1.10;;;21.10;75.50;;;;;;5115537;28;20487;-67
2021/08/04 10:18:16;;;;;;;2.00;1.00;;;21.10;76.60;;;;;;5115603;28;20517;-67
2021/08/04 10:20:44;;;;;;;3.40;2.50;;;21.10;76.70;;;;;;5115628;28;20434;-67
2021/08/04 10:23:14;;;;;;;3.40;1.27;;;21.10;76.00;;;;;;5115243;28;20528;-67
2021/08/04 10:25:44;;;;;;;2.87;1.40;;;21.10;76.10;;;;;;5115083;28;20470;-68
2021/08/04 10:28:12;;;;;;;2.60;1.50;;;21.10;74.60;;;;;;5115472;28;20522;-67
2021/08/04 10:30:42;;;;;;;1.80;0.87;;;21.10;75.90;;;;;;5115556;28;20430;-67
2021/08/04 10:33:09;;;;;;;1.80;1.00;;;21.00;74.30;;;;;;5115155;28;20527;-67
2021/08/04 10:35:38;;;;;;;2.13;1.00;;;21.00;75.10;;;;;;5115437;28;20513;-67
2021/08/04 10:38:09;;;;;;;2.30;1.10;;;21.00;75.30;;;;;;5115270;28;20513;-67
2021/08/04 10:40:36;;;;;;;3.30;2.23;;;20.90;75.60;;;;;;5115369;28;20517;-67
2021/08/04 10:43:04;;;;;;;2.03;1.00;;;20.70;75.70;;;;;;5115186;28;20569;-67
2021/08/04 10:45:33;;;;;;;2.60;1.20;;;20.70;77.80;;;;;;5115096;28;20533;-67
2021/08/04 10:48:20;;;;;;;2.10;1.00;;;20.60;77.60;;;;;;5115063;28;20430;-67
2021/08/04 10:51:19;;;;;;;2.20;1.10;;;20.60;77.20;;;;;;5112291;28;20434;-67
2021/08/04 10:54:12;;;;;;;3.83;1.10;;;20.50;76.80;;;;;;5024701;28;20778;-67
2021/08/04 10:57:11;;;;;;;2.60;1.03;;;20.60;76.90;;;;;;5116467;27;20433;-67
2021/08/04 10:59:41;;;;;;;2.10;1.10;;;20.70;77.70;;;;;;5112780;27;20441;-67
2021/08/04 11:02:30;;;;;;;2.80;1.40;;;20.70;78.50;;;;;;5108022;28;20505;-70
2021/08/04 11:04:57;;;;;;;1.70;0.70;;;20.80;79.40;;;;;;5110948;27;20442;-69
2021/08/04 11:07:24;;;;;;;2.73;1.80;;;20.80;78.00;;;;;;5113387;28;20952;-67
2021/08/04 11:10:03;;;;;;;2.17;1.20;;;20.90;80.50;;;;;;5110596;27;20434;-67
2021/08/04 11:12:49;;;;;;;2.07;1.10;;;20.90;81.80;;;;;;5114008;28;20438;-67
2021/08/04 11:15:35;;;;;;;2.30;1.27;;;21.00;82.30;;;;;;5133340;27;20438;-69
2021/08/04 11:18:08;;;;;;;2.43;1.30;;;21.00;82.10;;;;;;5134197;27;20439;-68
2021/08/04 11:20:37;;;;;;;4.10;1.17;;;21.00;82.70;;;;;;5129481;27;20507;-67
2021/08/04 11:23:08;;;;;;;1.70;0.83;;;21.10;83.10;;;;;;5115857;27;20470;-67
2021/08/04 11:25:42;;;;;;;2.00;1.10;;;21.10;83.00;;;;;;5114751;27;20487;-67
2021/08/04 11:28:17;;;;;;;2.57;1.20;;;21.10;83.80;;;;;;5112362;28;20460;-68
2021/08/04 11:30:52;;;;;;;2.10;1.30;;;21.10;82.40;;;;;;5113903;28;20469;-67
2021/08/04 11:33:33;;;;;;;2.10;1.23;;;21.20;83.70;;;;;;5115183;27;20549;-67
2021/08/04 11:36:06;;;;;;;2.07;1.10;;;21.10;81.50;;;;;;5113576;27;20444;-67
2021/08/04 11:39:06;;;;;;;2.10;1.20;;;21.10;82.70;;;;;;5114249;28;20502;-67
2021/08/04 11:41:41;;;;;;;2.33;0.80;;;21.10;82.80;;;;;;5114031;28;20558;-67
2021/08/04 11:44:24;;;;;;;1.77;0.80;;;21.00;80.00;;;;;;5113877;28;20437;-68
2021/08/04 11:46:56;;;;;;;2.63;0.90;;;20.90;80.40;;;;;;5113975;28;20770;-68
2021/08/04 11:49:27;;;;;;;1.70;0.90;;;20.90;77.70;;;;;;5114034;28;20459;-67
2021/08/04 11:51:55;;;;;;;1.70;0.80;;;20.90;76.00;;;;;;5114019;28;20522;-67
2021/08/04 11:54:35;;;;;;;2.00;1.07;;;20.80;75.30;;;;;;5113907;28;20834;-67
2021/08/04 11:57:03;;;;;;;1.90;0.80;;;20.80;78.40;;;;;;5113914;28;20517;-67
2021/08/04 11:59:31;;;;;;;2.60;1.00;;;20.70;78.90;;;;;;5113740;28;20503;-66
2021/08/04 12:02:03;;;;;;;1.90;0.80;;;20.70;79.00;;;;;;5113839;28;20558;-67
2021/08/04 12:04:32;;;;;;;2.33;1.17;;;20.70;79.50;;;;;;5113822;28;20523;-67
2021/08/04 12:07:05;;;;;;;2.30;1.03;;;20.70;81.20;;;;;;5113839;28;20445;-67
2021/08/04 12:09:35;;;;;;;1.90;0.80;;;20.70;81.00;;;;;;5113003;28;20438;-67
2021/08/04 12:12:03;;;;;;;2.10;0.90;;;20.70;78.90;;;;;;5113478;28;20432;-67
2021/08/04 12:14:33;;;;;;;2.00;1.10;;;20.70;79.70;;;;;;5113688;28;20528;-68
2021/08/04 12:17:02;;;;;;;3.53;1.40;;;20.70;80.10;;;;;;5113645;28;20828;-67
2021/08/04 12:19:49;;;;;;;2.00;0.90;;;20.80;80.70;;;;;;5113683;28;20521;-67
2021/08/04 12:22:19;;;;;;;1.97;1.00;;;20.90;79.80;;;;;;5113571;28;20483;-67
2021/08/04 12:24:50;;;;;;;2.07;1.20;;;20.90;80.10;;;;;;5113730;28;20859;-67
2021/08/04 12:27:33;;;;;;;2.30;1.10;;;20.90;78.10;;;;;;5113582;28;20521;-67
2021/08/04 12:30:20;;;;;;;1.93;1.07;;;20.90;77.60;;;;;;5113661;28;21004;-67
2021/08/04 12:33:01;;;;;;;2.00;1.03;;;20.80;77.20;;;;;;5112908;28;20588;-68
2021/08/04 12:35:38;;;;;;;2.47;1.47;;;20.80;78.20;;;;;;5113526;28;20442;-67
2021/08/04 12:38:06;;;;;;;1.97;0.90;;;20.70;78.60;;;;;;5113564;28;20446;-67
2021/08/04 12:40:34;;;;;;;2.70;1.17;;;20.70;79.00;;;;;;5113508;28;20544;-68
2021/08/04 12:43:02;;;;;;;2.03;1.00;;;20.50;79.40;;;;;;5113378;28;21001;-67
2021/08/04 12:45:30;;;;;;;4.17;1.07;;;20.40;80.70;;;;;;5113554;28;20926;-67
2021/08/04 12:48:01;;;;;;;1.80;0.80;;;20.30;80.70;;;;;;5113337;28;20536;-67
2021/08/04 12:50:30;;;;;;;3.20;1.10;;;20.30;82.00;;;;;;5113467;28;20521;-67
2021/08/04 12:52:58;;;;;;;2.53;1.37;;;20.20;81.60;;;;;;5113426;28;20832;-67
2021/08/04 12:55:26;;;;;;;2.10;1.10;;;20.20;80.60;;;;;;5113448;28;20445;-67
2021/08/04 12:58:04;;;;;;;1.70;0.80;;;20.10;80.30;;;;;;5113314;28;20530;-67
2021/08/04 13:00:33;;;;;;;1.80;0.93;;;20.10;78.30;;;;;;5113324;28;20479;-67